sensor_id;sensor_type;location;lat;lon;timestamp;pressure;altitude;pressure_sealevel;temperature;humidity
70546;BME280;58098;51.680;5.134;2024-03-23T00:53:41;101033.59;;;6.34;100.00
70546;BME280;58098;51.680;5.134;2024-03-23T00:56:06;101017.28;;;6.32;100.00
70546;BME280;58098;51.680;5.134;2024-03-23T00:58:32;101023.31;;;6.32;100.00
70546;BME280;58098;51.680;5.134;2024-03-23T01:00:57;100995.53;;;6.20;100.00
70546;BME280;58098;51.680;5.134;2024-03-23T01:03:22;100999.31;;;6.29;100.00
70546;BME280;58098;51.680;5.134;2024-03-23T01:05:48;100985.91;;;6.22;100.00
70546;BME280;58098;51.680;5.134;2024-03-23T01:08:14;100981.75;;;6.20;100.00
70546;BME280;58098;51.680;5.134;2024-03-23T01:10:39;100971.09;;;6.24;100.00
70546;BME280;58098;51.680;5.134;2024-03-23T01:13:04;100980.63;;;6.24;100.00
70546;BME280;58098;51.680;5.134;2024-03-23T01:15:30;100970.25;;;6.24;100.00
70546;BME280;58098;51.680;5.134;2024-03-23T01:17:55;100953.03;;;6.09;100.00
70546;BME280;58098;51.680;5.134;2024-03-23T01:20:20;100980.72;;;6.22;100.00
70546;BME280;58098;51.680;5.134;2024-03-23T01:22:46;100982.31;;;6.25;100.00
70546;BME280;58098;51.680;5.134;2024-03-23T01:25:11;100976.56;;;6.20;100.00
70546;BME280;58098;51.680;5.134;2024-03-23T01:27:36;100969.78;;;6.17;100.00
70546;BME280;58098;51.680;5.134;2024-03-23T01:30:02;100969.97;;;6.14;100.00
70546;BME280;58098;51.680;5.134;2024-03-23T01:32:27;100965.91;;;6.10;100.00
70546;BME280;58098;51.680;5.134;2024-03-23T01:34:53;100982.84;;;6.16;100.00
70546;BME280;58098;51.680;5.134;2024-03-23T01:37:18;100972.84;;;6.10;100.00
70546;BME280;58098;51.680;5.134;2024-03-23T01:39:43;100973.75;;;6.09;100.00
70546;BME280;58098;51.680;5.134;2024-03-23T01:42:08;100965.97;;;6.09;100.00
70546;BME280;58098;51.680;5.134;2024-03-23T01:44:34;100962.75;;;6.05;100.00
70546;BME280;58098;51.680;5.134;2024-03-23T01:46:59;100953.22;;;6.06;100.00
70546;BME280;58098;51.680;5.134;2024-03-23T01:49:24;100949.88;;;6.04;100.00
70546;BME280;58098;51.680;5.134;2024-03-23T01:51:50;100954.22;;;6.03;100.00
70546;BME280;58098;51.680;5.134;2024-03-23T01:54:15;100945.06;;;5.97;100.00
70546;BME280;58098;51.680;5.134;2024-03-23T01:56:41;100944.31;;;5.95;100.00
70546;BME280;58098;51.680;5.134;2024-03-23T01:59:07;100943.38;;;5.96;100.00
70546;BME280;58098;51.680;5.134;2024-03-23T02:01:34;100939.22;;;5.94;100.00
70546;BME280;58098;51.680;5.134;2024-03-23T02:04:01;100937.56;;;5.93;100.00
70546;BME280;58098;51.680;5.134;2024-03-23T02:06:27;100939.59;;;5.88;100.00
70546;BME280;58098;51.680;5.134;2024-03-23T02:08:53;100930.22;;;5.85;100.00
70546;BME280;58098;51.680;5.134;2024-03-23T02:11:18;100938.84;;;5.86;100.00
70546;BME280;58098;51.680;5.134;2024-03-23T02:13:44;100947.44;;;5.86;100.00
70546;BME280;58098;51.680;5.134;2024-03-23T02:16:09;100939.75;;;5.85;100.00
70546;BME280;58098;51.680;5.134;2024-03-23T02:18:35;100938.25;;;5.81;100.00
70546;BME280;58098;51.680;5.134;2024-03-23T02:21:00;100917.41;;;5.68;100.00
70546;BME280;58098;51.680;5.134;2024-03-23T02:23:26;100925.84;;;5.72;100.00
70546;BME280;58098;51.680;5.134;2024-03-23T02:25:51;100928.41;;;5.72;100.00
70546;BME280;58098;51.680;5.134;2024-03-23T02:28:18;100932.94;;;5.68;100.00
70546;BME280;58098;51.680;5.134;2024-03-23T02:30:43;100912.25;;;5.53;100.00
70546;BME280;58098;51.680;5.134;2024-03-23T02:33:09;100937.44;;;5.65;100.00
70546;BME280;58098;51.680;5.134;2024-03-23T02:35:34;100937.53;;;5.63;100.00
70546;BME280;58098;51.680;5.134;2024-03-23T02:38:00;100947.88;;;5.63;100.00
70546;BME280;58098;51.680;5.134;2024-03-23T02:40:26;100926.78;;;5.55;100.00
70546;BME280;58098;51.680;5.134;2024-03-23T02:42:52;100946.47;;;5.58;100.00
70546;BME280;58098;51.680;5.134;2024-03-23T02:45:17;100932.47;;;5.46;100.00
70546;BME280;58098;51.680;5.134;2024-03-23T02:47:43;100934.47;;;5.41;100.00
70546;BME280;58098;51.680;5.134;2024-03-23T02:50:08;100933.75;;;5.39;100.00
70546;BME280;58098;51.680;5.134;2024-03-23T02:52:34;100938.50;;;5.31;100.00
70546;BME280;58098;51.680;5.134;2024-03-23T02:55:00;100930.34;;;5.23;100.00
70546;BME280;58098;51.680;5.134;2024-03-23T02:57:27;100928.19;;;5.15;100.00
70546;BME280;58098;51.680;5.134;2024-03-23T02:59:52;100931.25;;;5.06;100.00
70546;BME280;58098;51.680;5.134;2024-03-23T03:02:17;100935.53;;;5.07;100.00
70546;BME280;58098;51.680;5.134;2024-03-23T03:04:43;100952.03;;;5.05;100.00
70546;BME280;58098;51.680;5.134;2024-03-23T03:07:08;100927.94;;;4.89;100.00
70546;BME280;58098;51.680;5.134;2024-03-23T03:09:34;100944.19;;;4.91;100.00
70546;BME280;58098;51.680;5.134;2024-03-23T03:12:01;100942.28;;;4.79;100.00
70546;BME280;58098;51.680;5.134;2024-03-23T03:14:26;100938.69;;;4.81;100.00
70546;BME280;58098;51.680;5.134;2024-03-23T03:16:52;100936.66;;;4.71;100.00
70546;BME280;58098;51.680;5.134;2024-03-23T03:19:17;100929.41;;;4.61;100.00
70546;BME280;58098;51.680;5.134;2024-03-23T03:21:43;100942.19;;;4.64;100.00
70546;BME280;58098;51.680;5.134;2024-03-23T03:24:08;100928.13;;;4.53;100.00
70546;BME280;58098;51.680;5.134;2024-03-23T03:26:34;100940.84;;;4.57;100.00
70546;BME280;58098;51.680;5.134;2024-03-23T03:28:59;100909.09;;;4.38;100.00
70546;BME280;58098;51.680;5.134;2024-03-23T03:31:24;100912.91;;;4.31;100.00
70546;BME280;58098;51.680;5.134;2024-03-23T03:33:50;100925.38;;;4.40;100.00
70546;BME280;58098;51.680;5.134;2024-03-23T03:36:16;100937.75;;;4.34;100.00
70546;BME280;58098;51.680;5.134;2024-03-23T03:38:42;100936.84;;;4.35;100.00
70546;BME280;58098;51.680;5.134;2024-03-23T03:41:07;100944.59;;;4.35;100.00
70546;BME280;58098;51.680;5.134;2024-03-23T03:43:32;100916.97;;;4.20;100.00
70546;BME280;58098;51.680;5.134;2024-03-23T03:45:59;100935.41;;;4.29;100.00
70546;BME280;58098;51.680;5.134;2024-03-23T03:48:25;100917.88;;;4.19;100.00
70546;BME280;58098;51.680;5.134;2024-03-23T03:50:51;100939.13;;;4.24;100.00
70546;BME280;58098;51.680;5.134;2024-03-23T03:53:16;100931.56;;;4.21;100.00
70546;BME280;58098;51.680;5.134;2024-03-23T03:55:42;100932.72;;;4.15;100.00
70546;BME280;58098;51.680;5.134;2024-03-23T03:58:07;100922.00;;;4.06;100.00
70546;BME280;58098;51.680;5.134;2024-03-23T04:00:33;100913.66;;;4.00;100.00
70546;BME280;58098;51.680;5.134;2024-03-23T04:02:58;100912.81;;;4.00;100.00
70546;BME280;58098;51.680;5.134;2024-03-23T04:05:23;100910.25;;;4.00;100.00
70546;BME280;58098;51.680;5.134;2024-03-23T04:07:49;100906.22;;;3.94;100.00
70546;BME280;58098;51.680;5.134;2024-03-23T04:10:14;100923.16;;;4.00;100.00
70546;BME280;58098;51.680;5.134;2024-03-23T04:12:43;100906.53;;;3.88;100.00
70546;BME280;58098;51.680;5.134;2024-03-23T04:15:09;100916.78;;;3.90;100.00
70546;BME280;58098;51.680;5.134;2024-03-23T04:17:35;100913.44;;;3.88;100.00
70546;BME280;58098;51.680;5.134;2024-03-23T04:20:01;100910.41;;;3.80;100.00
70546;BME280;58098;51.680;5.134;2024-03-23T04:22:28;100924.25;;;3.79;100.00
70546;BME280;58098;51.680;5.134;2024-03-23T04:24:54;100922.88;;;3.72;100.00
70546;BME280;58098;51.680;5.134;2024-03-23T04:27:20;100926.06;;;3.77;100.00
70546;BME280;58098;51.680;5.134;2024-03-23T04:29:49;100913.78;;;3.65;100.00
70546;BME280;58098;51.680;5.134;2024-03-23T04:32:15;100918.13;;;3.63;100.00
70546;BME280;58098;51.680;5.134;2024-03-23T04:34:41;100922.63;;;3.59;100.00
70546;BME280;58098;51.680;5.134;2024-03-23T04:37:06;100928.31;;;3.66;100.00
70546;BME280;58098;51.680;5.134;2024-03-23T04:39:32;100914.91;;;3.59;100.00
70546;BME280;58098;51.680;5.134;2024-03-23T04:41:58;100917.63;;;3.56;100.00
70546;BME280;58098;51.680;5.134;2024-03-23T04:44:23;100911.00;;;3.51;100.00
70546;BME280;58098;51.680;5.134;2024-03-23T04:46:48;100922.72;;;3.58;100.00
70546;BME280;58098;51.680;5.134;2024-03-23T04:49:14;100922.78;;;3.56;100.00
70546;BME280;58098;51.680;5.134;2024-03-23T04:51:39;100906.78;;;3.50;100.00
70546;BME280;58098;51.680;5.134;2024-03-23T04:54:06;100894.91;;;3.46;100.00
70546;BME280;58098;51.680;5.134;2024-03-23T04:56:32;100900.06;;;3.46;100.00
70546;BME280;58098;51.680;5.134;2024-03-23T04:58:58;100913.66;;;3.49;100.00
70546;BME280;58098;51.680;5.134;2024-03-23T05:01:26;100905.09;;;3.49;100.00
70546;BME280;58098;51.680;5.134;2024-03-23T05:03:52;100903.50;;;3.46;100.00
70546;BME280;58098;51.680;5.134;2024-03-23T05:06:18;100905.94;;;3.49;100.00
70546;BME280;58098;51.680;5.134;2024-03-23T05:08:43;100894.63;;;3.34;100.00
70546;BME280;58098;51.680;5.134;2024-03-23T05:11:08;100910.47;;;3.44;100.00
70546;BME280;58098;51.680;5.134;2024-03-23T05:13:34;100898.88;;;3.36;100.00
70546;BME280;58098;51.680;5.134;2024-03-23T05:15:59;100907.22;;;3.41;100.00
70546;BME280;58098;51.680;5.134;2024-03-23T05:18:24;100904.03;;;3.36;100.00
70546;BME280;58098;51.680;5.134;2024-03-23T05:20:56;100896.50;;;3.31;100.00
70546;BME280;58098;51.680;5.134;2024-03-23T05:23:22;100906.66;;;3.34;100.00
70546;BME280;58098;51.680;5.134;2024-03-23T05:25:48;100905.00;;;3.33;100.00
70546;BME280;58098;51.680;5.134;2024-03-23T05:28:13;100915.34;;;3.33;100.00
70546;BME280;58098;51.680;5.134;2024-03-23T05:30:38;100906.97;;;3.28;100.00
70546;BME280;58098;51.680;5.134;2024-03-23T05:33:05;100912.81;;;3.31;100.00
70546;BME280;58098;51.680;5.134;2024-03-23T05:35:30;100916.00;;;3.37;100.00
70546;BME280;58098;51.680;5.134;2024-03-23T05:37:55;100910.97;;;3.33;100.00
70546;BME280;58098;51.680;5.134;2024-03-23T05:40:21;100915.94;;;3.38;100.00
70546;BME280;58098;51.680;5.134;2024-03-23T05:42:46;100913.06;;;3.44;100.00
70546;BME280;58098;51.680;5.134;2024-03-23T05:45:11;100908.81;;;3.43;100.00
70546;BME280;58098;51.680;5.134;2024-03-23T05:47:37;100920.34;;;3.53;100.00
70546;BME280;58098;51.680;5.134;2024-03-23T05:50:03;100910.25;;;3.49;100.00
70546;BME280;58098;51.680;5.134;2024-03-23T05:52:28;100906.63;;;3.53;100.00
70546;BME280;58098;51.680;5.134;2024-03-23T05:54:54;100913.91;;;3.62;100.00
70546;BME280;58098;51.680;5.134;2024-03-23T05:57:20;100899.50;;;3.58;100.00
70546;BME280;58098;51.680;5.134;2024-03-23T05:59:46;100897.50;;;3.63;100.00
70546;BME280;58098;51.680;5.134;2024-03-23T06:02:11;100871.19;;;3.56;100.00
70546;BME280;58098;51.680;5.134;2024-03-23T06:04:36;100894.41;;;3.73;100.00
70546;BME280;58098;51.680;5.134;2024-03-23T06:07:02;100911.00;;;3.85;100.00
70546;BME280;58098;51.680;5.134;2024-03-23T06:09:27;100906.09;;;3.80;100.00
70546;BME280;58098;51.680;5.134;2024-03-23T06:11:56;100915.88;;;3.91;100.00
70546;BME280;58098;51.680;5.134;2024-03-23T06:14:21;100913.66;;;4.00;100.00
70546;BME280;58098;51.680;5.134;2024-03-23T06:16:47;100912.53;;;4.06;100.00
70546;BME280;58098;51.680;5.134;2024-03-23T06:19:12;100902.31;;;4.20;100.00
70546;BME280;58098;51.680;5.134;2024-03-23T06:21:43;100921.13;;;4.39;100.00
70546;BME280;58098;51.680;5.134;2024-03-23T06:24:08;100911.28;;;4.46;100.00
70546;BME280;58098;51.680;5.134;2024-03-23T06:26:33;100903.47;;;4.47;100.00
70546;BME280;58098;51.680;5.134;2024-03-23T06:28:59;100918.56;;;4.55;100.00
70546;BME280;58098;51.680;5.134;2024-03-23T06:31:24;100902.97;;;4.56;100.00
70546;BME280;58098;51.680;5.134;2024-03-23T06:33:49;100912.97;;;4.62;100.00
70546;BME280;58098;51.680;5.134;2024-03-23T06:36:15;100899.16;;;4.63;100.00
70546;BME280;58098;51.680;5.134;2024-03-23T06:38:40;100910.00;;;4.86;100.00
70546;BME280;58098;51.680;5.134;2024-03-23T06:41:05;100904.84;;;5.01;100.00
70546;BME280;58098;51.680;5.134;2024-03-23T06:43:31;100901.81;;;5.09;100.00
70546;BME280;58098;51.680;5.134;2024-03-23T06:45:56;100898.47;;;5.07;100.00
70546;BME280;58098;51.680;5.134;2024-03-23T06:48:22;100901.06;;;5.07;100.00
70546;BME280;58098;51.680;5.134;2024-03-23T06:50:47;100909.66;;;5.07;100.00
70546;BME280;58098;51.680;5.134;2024-03-23T06:53:13;100898.63;;;5.04;100.00
70546;BME280;58098;51.680;5.134;2024-03-23T06:55:39;100908.59;;;4.96;100.00
70546;BME280;58098;51.680;5.134;2024-03-23T06:58:04;100913.19;;;4.91;100.00
70546;BME280;58098;51.680;5.134;2024-03-23T07:00:30;100916.00;;;4.86;100.00
70546;BME280;58098;51.680;5.134;2024-03-23T07:02:55;100919.75;;;4.81;100.00
70546;BME280;58098;51.680;5.134;2024-03-23T07:05:21;100921.00;;;4.74;100.00
70546;BME280;58098;51.680;5.134;2024-03-23T07:07:46;100904.81;;;4.70;100.00
70546;BME280;58098;51.680;5.134;2024-03-23T07:10:11;100928.66;;;4.75;100.00
70546;BME280;58098;51.680;5.134;2024-03-23T07:12:37;100918.06;;;4.80;100.00
70546;BME280;58098;51.680;5.134;2024-03-23T07:15:02;100924.75;;;4.84;100.00
70546;BME280;58098;51.680;5.134;2024-03-23T07:17:28;100912.50;;;4.87;100.00
70546;BME280;58098;51.680;5.134;2024-03-23T07:19:53;100921.09;;;5.03;100.00
70546;BME280;58098;51.680;5.134;2024-03-23T07:22:18;100919.91;;;5.09;100.00
70546;BME280;58098;51.680;5.134;2024-03-23T07:24:44;100924.81;;;5.29;100.00
70546;BME280;58098;51.680;5.134;2024-03-23T07:27:09;100909.78;;;5.35;100.00
70546;BME280;58098;51.680;5.134;2024-03-23T07:29:37;100914.59;;;5.57;100.00
70546;BME280;58098;51.680;5.134;2024-03-23T07:32:02;100913.06;;;5.69;100.00
70546;BME280;58098;51.680;5.134;2024-03-23T07:34:28;100903.97;;;5.91;100.00
70546;BME280;58098;51.680;5.134;2024-03-23T07:36:53;100919.75;;;6.17;100.00
70546;BME280;58098;51.680;5.134;2024-03-23T07:39:19;100920.69;;;6.30;100.00
70546;BME280;58098;51.680;5.134;2024-03-23T07:41:45;100906.06;;;6.29;100.00
70546;BME280;58098;51.680;5.134;2024-03-23T07:44:10;100903.91;;;6.35;100.00
70546;BME280;58098;51.680;5.134;2024-03-23T07:46:36;100912.06;;;6.43;100.00
70546;BME280;58098;51.680;5.134;2024-03-23T07:49:01;100918.38;;;6.53;100.00
70546;BME280;58098;51.680;5.134;2024-03-23T07:51:26;100922.91;;;6.64;100.00
70546;BME280;58098;51.680;5.134;2024-03-23T07:53:52;100936.97;;;6.60;100.00
70546;BME280;58098;51.680;5.134;2024-03-23T07:56:19;100929.00;;;6.63;100.00
70546;BME280;58098;51.680;5.134;2024-03-23T07:58:45;100932.16;;;6.68;100.00
70546;BME280;58098;51.680;5.134;2024-03-23T08:01:15;100941.47;;;6.85;100.00
70546;BME280;58098;51.680;5.134;2024-03-23T08:03:42;100941.09;;;6.91;100.00
70546;BME280;58098;51.680;5.134;2024-03-23T08:06:18;100938.41;;;6.92;100.00
70546;BME280;58098;51.680;5.134;2024-03-23T08:08:50;100958.25;;;6.93;100.00
70546;BME280;58098;51.680;5.134;2024-03-23T08:11:16;100943.72;;;6.91;100.00
70546;BME280;58098;51.680;5.134;2024-03-23T08:13:42;100965.84;;;6.82;100.00
70546;BME280;58098;51.680;5.134;2024-03-23T08:16:10;100946.22;;;6.64;100.00
70546;BME280;58098;51.680;5.134;2024-03-23T08:18:35;100965.41;;;6.61;100.00
70546;BME280;58098;51.680;5.134;2024-03-23T08:21:05;100958.81;;;6.56;100.00
70546;BME280;58098;51.680;5.134;2024-03-23T08:23:32;100965.47;;;6.60;100.00
70546;BME280;58098;51.680;5.134;2024-03-23T08:26:05;100934.47;;;6.58;100.00
70546;BME280;58098;51.680;5.134;2024-03-23T08:28:31;100944.88;;;6.99;100.00
70546;BME280;58098;51.680;5.134;2024-03-23T08:31:01;100952.31;;;7.32;100.00
70546;BME280;58098;51.680;5.134;2024-03-23T08:33:27;100947.03;;;7.73;100.00
70546;BME280;58098;51.680;5.134;2024-03-23T08:35:57;100955.72;;;7.86;100.00
70546;BME280;58098;51.680;5.134;2024-03-23T08:38:23;100977.00;;;7.91;100.00
70546;BME280;58098;51.680;5.134;2024-03-23T08:40:59;100979.09;;;7.86;100.00
70546;BME280;58098;51.680;5.134;2024-03-23T08:43:25;101005.97;;;7.85;100.00
70546;BME280;58098;51.680;5.134;2024-03-23T08:45:51;101021.56;;;7.85;100.00
70546;BME280;58098;51.680;5.134;2024-03-23T08:48:17;100987.41;;;7.64;100.00
70546;BME280;58098;51.680;5.134;2024-03-23T08:50:43;101013.53;;;7.49;100.00
70546;BME280;58098;51.680;5.134;2024-03-23T08:53:08;101006.88;;;7.45;100.00
70546;BME280;58098;51.680;5.134;2024-03-23T08:55:34;101026.56;;;7.35;100.00
70546;BME280;58098;51.680;5.134;2024-03-23T08:57:59;101031.28;;;7.28;100.00
70546;BME280;58098;51.680;5.134;2024-03-23T09:00:25;101017.97;;;7.20;100.00
70546;BME280;58098;51.680;5.134;2024-03-23T09:02:51;101019.06;;;7.30;100.00
70546;BME280;58098;51.680;5.134;2024-03-23T09:05:16;101016.50;;;7.43;100.00
70546;BME280;58098;51.680;5.134;2024-03-23T09:07:41;101023.25;;;7.59;100.00
70546;BME280;58098;51.680;5.134;2024-03-23T09:10:07;100989.28;;;7.62;100.00
70546;BME280;58098;51.680;5.134;2024-03-23T09:12:33;101000.78;;;7.85;100.00
70546;BME280;58098;51.680;5.134;2024-03-23T09:14:58;101002.06;;;7.92;100.00
70546;BME280;58098;51.680;5.134;2024-03-23T09:17:23;100992.38;;;7.94;100.00
70546;BME280;58098;51.680;5.134;2024-03-23T09:19:48;101005.00;;;8.00;100.00
70546;BME280;58098;51.680;5.134;2024-03-23T09:22:14;100988.25;;;8.04;100.00
70546;BME280;58098;51.680;5.134;2024-03-23T09:24:40;101004.28;;;8.23;100.00
70546;BME280;58098;51.680;5.134;2024-03-23T09:27:05;100994.25;;;8.31;100.00
70546;BME280;58098;51.680;5.134;2024-03-23T09:29:31;101023.09;;;8.53;100.00
70546;BME280;58098;51.680;5.134;2024-03-23T09:31:56;101018.59;;;8.55;100.00
70546;BME280;58098;51.680;5.134;2024-03-23T09:34:22;101031.69;;;8.67;100.00
70546;BME280;58098;51.680;5.134;2024-03-23T09:36:51;101027.63;;;8.50;100.00
70546;BME280;58098;51.680;5.134;2024-03-23T09:39:17;101032.53;;;8.29;100.00
70546;BME280;58098;51.680;5.134;2024-03-23T09:41:42;101033.00;;;8.22;100.00
70546;BME280;58098;51.680;5.134;2024-03-23T09:44:08;101011.03;;;8.13;100.00
70546;BME280;58098;51.680;5.134;2024-03-23T09:46:33;101016.56;;;8.21;100.00
70546;BME280;58098;51.680;5.134;2024-03-23T09:49:01;101044.78;;;8.27;100.00
70546;BME280;58098;51.680;5.134;2024-03-23T09:51:30;101035.03;;;8.43;100.00
70546;BME280;58098;51.680;5.134;2024-03-23T09:53:55;101011.31;;;8.60;100.00
70546;BME280;58098;51.680;5.134;2024-03-23T09:56:21;101023.16;;;8.90;100.00
70546;BME280;58098;51.680;5.134;2024-03-23T09:58:46;101024.19;;;9.00;100.00
70546;BME280;58098;51.680;5.134;2024-03-23T10:01:12;101053.03;;;8.72;100.00
70546;BME280;58098;51.680;5.134;2024-03-23T10:03:47;101043.19;;;8.25;100.00
70546;BME280;58098;51.680;5.134;2024-03-23T10:06:12;101022.97;;;7.64;100.00
70546;BME280;58098;51.680;5.134;2024-03-23T10:08:37;101015.34;;;7.34;100.00
70546;BME280;58098;51.680;5.134;2024-03-23T10:11:13;101011.59;;;7.38;100.00
70546;BME280;58098;51.680;5.134;2024-03-23T10:13:44;101000.00;;;7.44;100.00
70546;BME280;58098;51.680;5.134;2024-03-23T10:16:11;101011.56;;;7.79;100.00
70546;BME280;58098;51.680;5.134;2024-03-23T10:18:38;101012.56;;;8.03;100.00
70546;BME280;58098;51.680;5.134;2024-03-23T10:23:35;100990.31;;;8.51;100.00
70546;BME280;58098;51.680;5.134;2024-03-23T10:26:18;101005.81;;;8.78;100.00
70546;BME280;58098;51.680;5.134;2024-03-23T10:29:10;101026.94;;;8.86;100.00
70546;BME280;58098;51.680;5.134;2024-03-23T10:31:37;101028.25;;;8.79;100.00
70546;BME280;58098;51.680;5.134;2024-03-23T10:34:06;100996.75;;;8.71;100.00
70546;BME280;58098;51.680;5.134;2024-03-23T10:36:34;100991.56;;;8.58;100.00
70546;BME280;58098;51.680;5.134;2024-03-23T10:38:59;100996.75;;;8.45;100.00
70546;BME280;58098;51.680;5.134;2024-03-23T10:41:28;101024.66;;;8.56;100.00
70546;BME280;58098;51.680;5.134;2024-03-23T10:43:55;101023.91;;;8.41;100.00
70546;BME280;58098;51.680;5.134;2024-03-23T10:46:21;101032.34;;;8.18;100.00
70546;BME280;58098;51.680;5.134;2024-03-23T10:48:46;101018.63;;;7.77;100.00
70546;BME280;58098;51.680;5.134;2024-03-23T10:51:13;101025.72;;;7.34;100.00
70546;BME280;58098;51.680;5.134;2024-03-23T10:53:39;100992.22;;;6.89;100.00
70546;BME280;58098;51.680;5.134;2024-03-23T10:56:05;101011.50;;;6.56;100.00
70546;BME280;58098;51.680;5.134;2024-03-23T10:58:43;100992.56;;;6.26;100.00
70546;BME280;58098;51.680;5.134;2024-03-23T11:01:12;100999.31;;;6.29;100.00
70546;BME280;58098;51.680;5.134;2024-03-23T11:03:39;100989.41;;;6.21;100.00
70546;BME280;58098;51.680;5.134;2024-03-23T11:06:06;100953.06;;;6.23;100.00
70546;BME280;58098;51.680;5.134;2024-03-23T11:08:39;100988.00;;;6.74;100.00
70546;BME280;58098;51.680;5.134;2024-03-23T11:11:17;100992.19;;;7.17;100.00
70546;BME280;58098;51.680;5.134;2024-03-23T11:13:44;100993.72;;;7.87;100.00
70546;BME280;58098;51.680;5.134;2024-03-23T11:16:14;101002.56;;;8.36;100.00
70546;BME280;58098;51.680;5.134;2024-03-23T11:18:40;100987.78;;;8.75;100.00
70546;BME280;58098;51.680;5.134;2024-03-23T11:21:06;101031.56;;;8.93;100.00
70546;BME280;58098;51.680;5.134;2024-03-23T11:23:32;101050.44;;;8.59;100.00
70546;BME280;58098;51.680;5.134;2024-03-23T11:25:57;101037.34;;;7.55;100.00
70546;BME280;58098;51.680;5.134;2024-03-23T11:28:22;101009.28;;;6.79;100.00
70546;BME280;58098;51.680;5.134;2024-03-23T11:30:48;100992.34;;;6.45;100.00
70546;BME280;58098;51.680;5.134;2024-03-23T11:33:13;100967.69;;;6.38;100.00
70546;BME280;58098;51.680;5.134;2024-03-23T11:35:40;100958.38;;;6.49;100.00
70546;BME280;58098;51.680;5.134;2024-03-23T11:38:13;100934.94;;;6.51;100.00
70546;BME280;58098;51.680;5.134;2024-03-23T11:40:43;100959.81;;;6.68;100.00
70546;BME280;58098;51.680;5.134;2024-03-23T11:43:10;100959.34;;;6.89;100.00
70546;BME280;58098;51.680;5.134;2024-03-23T11:45:47;100937.28;;;7.10;100.00
70546;BME280;58098;51.680;5.134;2024-03-23T11:48:16;100938.09;;;7.38;100.00
70546;BME280;58098;51.680;5.134;2024-03-23T11:50:45;100928.88;;;7.85;100.00
70546;BME280;58098;51.680;5.134;2024-03-23T11:58:08;100947.75;;;8.52;100.00
70546;BME280;58098;51.680;5.134;2024-03-23T12:00:34;100977.00;;;8.68;100.00
70546;BME280;58098;51.680;5.134;2024-03-23T12:03:03;100990.00;;;8.55;100.00
70546;BME280;58098;51.680;5.134;2024-03-23T12:05:29;100997.69;;;8.44;100.00
70546;BME280;58098;51.680;5.134;2024-03-23T12:07:55;100982.78;;;8.21;100.00
70546;BME280;58098;51.680;5.134;2024-03-23T12:10:21;100978.06;;;7.62;100.00
70546;BME280;58098;51.680;5.134;2024-03-23T12:12:46;100966.31;;;7.29;100.00
70546;BME280;58098;51.680;5.134;2024-03-23T12:15:22;100943.50;;;6.94;100.00
70546;BME280;58098;51.680;5.134;2024-03-23T12:17:48;100952.22;;;6.93;100.00
70546;BME280;58098;51.680;5.134;2024-03-23T12:20:13;100935.81;;;6.92;100.00
70546;BME280;58098;51.680;5.134;2024-03-23T12:22:38;100918.56;;;7.05;100.00
70546;BME280;58098;51.680;5.134;2024-03-23T12:25:04;100944.84;;;7.13;100.00
70546;BME280;58098;51.680;5.134;2024-03-23T12:27:29;100964.44;;;7.31;100.00
70546;BME280;58098;51.680;5.134;2024-03-23T12:29:54;100964.34;;;7.60;100.00
70546;BME280;58098;51.680;5.134;2024-03-23T12:32:20;100980.81;;;7.73;100.00
70546;BME280;58098;51.680;5.134;2024-03-23T12:34:45;100998.72;;;7.90;100.00
70546;BME280;58098;51.680;5.134;2024-03-23T12:37:12;101011.00;;;7.88;100.00
70546;BME280;58098;51.680;5.134;2024-03-23T12:39:37;100984.63;;;7.41;100.00
70546;BME280;58098;51.680;5.134;2024-03-23T12:42:03;100978.59;;;6.99;100.00
70546;BME280;58098;51.680;5.134;2024-03-23T12:44:29;100956.03;;;6.59;100.00
70546;BME280;58098;51.680;5.134;2024-03-23T12:46:54;100970.25;;;6.94;100.00
70546;BME280;58098;51.680;5.134;2024-03-23T12:49:19;100956.72;;;7.03;100.00
70546;BME280;58098;51.680;5.134;2024-03-23T12:51:53;100973.84;;;7.20;100.00
70546;BME280;58098;51.680;5.134;2024-03-23T12:54:20;100942.25;;;7.40;100.00
70546;BME280;58098;51.680;5.134;2024-03-23T12:56:46;100973.50;;;7.65;100.00
70546;BME280;58098;51.680;5.134;2024-03-23T12:59:11;100979.00;;;8.00;100.00
70546;BME280;58098;51.680;5.134;2024-03-23T13:01:38;100975.94;;;8.45;100.00
70546;BME280;58098;51.680;5.134;2024-03-23T13:04:03;100984.91;;;8.54;100.00
70546;BME280;58098;51.680;5.134;2024-03-23T13:06:28;100998.72;;;8.29;100.00
70546;BME280;58098;51.680;5.134;2024-03-23T13:08:59;100980.38;;;7.79;100.00
70546;BME280;58098;51.680;5.134;2024-03-23T13:11:24;100989.63;;;7.44;100.00
70546;BME280;58098;51.680;5.134;2024-03-23T13:13:50;100962.03;;;6.88;100.00
70546;BME280;58098;51.680;5.134;2024-03-23T13:16:16;100934.28;;;6.47;100.00
70546;BME280;58098;51.680;5.134;2024-03-23T13:18:41;100935.66;;;6.39;100.00
70546;BME280;58098;51.680;5.134;2024-03-23T13:21:06;100915.59;;;6.42;100.00
70546;BME280;58098;51.680;5.134;2024-03-23T13:23:32;100932.81;;;6.43;100.00
70546;BME280;58098;51.680;5.134;2024-03-23T13:25:59;100924.28;;;6.41;100.00
70546;BME280;58098;51.680;5.134;2024-03-23T13:28:24;100910.22;;;6.45;100.00
70546;BME280;58098;51.680;5.134;2024-03-23T13:30:53;100902.16;;;6.36;100.00
70546;BME280;58098;51.680;5.134;2024-03-23T13:33:19;100903.38;;;6.44;100.00
70546;BME280;58098;51.680;5.134;2024-03-23T13:35:55;100892.53;;;6.52;100.00
70546;BME280;58098;51.680;5.134;2024-03-23T13:38:21;100887.69;;;6.60;100.00
70546;BME280;58098;51.680;5.134;2024-03-23T13:40:54;100878.97;;;6.75;100.00
70546;BME280;58098;51.680;5.134;2024-03-23T13:43:20;100883.59;;;6.84;100.00
70546;BME280;58098;51.680;5.134;2024-03-23T13:45:47;100869.28;;;6.91;100.00